sensor_id;sensor_type;location;lat;lon;timestamp;P1;durP1;ratioP1;P2;durP2;ratioP2
16737;SDS011;17906;47.684;10.806;2023-08-12T00:00:39;5.57;;;2.20;;
16737;SDS011;17906;47.684;10.806;2023-08-12T00:03:06;3.17;;;2.37;;
16737;SDS011;17906;47.684;10.806;2023-08-12T00:05:32;3.30;;;2.13;;
16737;SDS011;17906;47.684;10.806;2023-08-12T00:08:00;5.80;;;2.70;;
16737;SDS011;17906;47.684;10.806;2023-08-12T00:10:27;3.27;;;2.90;;
16737;SDS011;17906;47.684;10.806;2023-08-12T00:12:53;3.50;;;2.90;;
16737;SDS011;17906;47.684;10.806;2023-08-12T00:15:21;4.67;;;2.50;;
16737;SDS011;17906;47.684;10.806;2023-08-12T00:17:47;3.90;;;2.90;;
16737;SDS011;17906;47.684;10.806;2023-08-12T00:20:14;3.10;;;2.80;;
16737;SDS011;17906;47.684;10.806;2023-08-12T00:22:40;4.20;;;3.20;;
16737;SDS011;17906;47.684;10.806;2023-08-12T00:25:07;3.63;;;3.03;;
16737;SDS011;17906;47.684;10.806;2023-08-12T00:27:33;4.23;;;3.40;;
16737;SDS011;17906;47.684;10.806;2023-08-12T00:30:00;5.33;;;2.93;;
16737;SDS011;17906;47.684;10.806;2023-08-12T00:32:27;5.40;;;3.10;;
16737;SDS011;17906;47.684;10.806;2023-08-12T00:34:54;3.47;;;2.60;;
16737;SDS011;17906;47.684;10.806;2023-08-12T00:37:20;4.40;;;2.53;;
16737;SDS011;17906;47.684;10.806;2023-08-12T00:39:47;2.93;;;2.60;;
16737;SDS011;17906;47.684;10.806;2023-08-12T00:42:13;4.33;;;2.90;;
16737;SDS011;17906;47.684;10.806;2023-08-12T00:44:39;4.37;;;3.20;;
16737;SDS011;17906;47.684;10.806;2023-08-12T00:47:06;5.73;;;3.20;;
16737;SDS011;17906;47.684;10.806;2023-08-12T00:49:34;5.23;;;3.17;;
16737;SDS011;17906;47.684;10.806;2023-08-12T00:52:02;4.77;;;3.77;;
16737;SDS011;17906;47.684;10.806;2023-08-12T00:54:28;5.30;;;3.30;;
16737;SDS011;17906;47.684;10.806;2023-08-12T00:56:55;9.37;;;3.60;;
16737;SDS011;17906;47.684;10.806;2023-08-12T00:59:21;4.37;;;3.60;;
16737;SDS011;17906;47.684;10.806;2023-08-12T01:01:48;5.50;;;3.00;;
16737;SDS011;17906;47.684;10.806;2023-08-12T01:04:14;3.27;;;2.90;;
16737;SDS011;17906;47.684;10.806;2023-08-12T01:06:42;4.53;;;3.30;;
16737;SDS011;17906;47.684;10.806;2023-08-12T01:09:09;3.90;;;3.23;;
16737;SDS011;17906;47.684;10.806;2023-08-12T01:11:36;3.97;;;3.10;;
16737;SDS011;17906;47.684;10.806;2023-08-12T01:14:06;4.93;;;2.47;;
16737;SDS011;17906;47.684;10.806;2023-08-12T01:16:36;3.50;;;2.93;;
16737;SDS011;17906;47.684;10.806;2023-08-12T01:19:03;6.13;;;3.10;;
16737;SDS011;17906;47.684;10.806;2023-08-12T01:21:31;3.10;;;2.60;;
16737;SDS011;17906;47.684;10.806;2023-08-12T01:23:59;2.67;;;2.20;;
16737;SDS011;17906;47.684;10.806;2023-08-12T01:26:26;3.23;;;2.47;;
16737;SDS011;17906;47.684;10.806;2023-08-12T01:28:52;5.33;;;2.87;;
16737;SDS011;17906;47.684;10.806;2023-08-12T01:31:21;3.80;;;2.70;;
16737;SDS011;17906;47.684;10.806;2023-08-12T01:33:51;3.53;;;2.57;;
16737;SDS011;17906;47.684;10.806;2023-08-12T01:36:18;3.37;;;2.73;;
16737;SDS011;17906;47.684;10.806;2023-08-12T01:38:45;3.77;;;2.40;;
16737;SDS011;17906;47.684;10.806;2023-08-12T01:41:14;3.33;;;2.70;;
16737;SDS011;17906;47.684;10.806;2023-08-12T01:43:41;3.13;;;2.60;;
16737;SDS011;17906;47.684;10.806;2023-08-12T01:46:08;2.90;;;2.53;;
16737;SDS011;17906;47.684;10.806;2023-08-12T01:48:35;4.33;;;2.97;;
16737;SDS011;17906;47.684;10.806;2023-08-12T01:51:01;3.47;;;2.80;;
16737;SDS011;17906;47.684;10.806;2023-08-12T01:53:28;3.13;;;2.80;;
16737;SDS011;17906;47.684;10.806;2023-08-12T01:55:54;3.57;;;3.00;;
16737;SDS011;17906;47.684;10.806;2023-08-12T01:58:22;4.83;;;2.20;;
16737;SDS011;17906;47.684;10.806;2023-08-12T02:00:48;2.50;;;2.00;;
16737;SDS011;17906;47.684;10.806;2023-08-12T02:03:15;3.60;;;2.57;;
16737;SDS011;17906;47.684;10.806;2023-08-12T02:05:41;2.87;;;2.23;;
16737;SDS011;17906;47.684;10.806;2023-08-12T02:08:08;1.50;;;1.40;;
16737;SDS011;17906;47.684;10.806;2023-08-12T02:10:35;1.60;;;1.20;;
16737;SDS011;17906;47.684;10.806;2023-08-12T02:13:01;1.83;;;1.50;;
16737;SDS011;17906;47.684;10.806;2023-08-12T02:15:29;1.57;;;1.47;;
16737;SDS011;17906;47.684;10.806;2023-08-12T02:17:56;3.57;;;2.70;;
16737;SDS011;17906;47.684;10.806;2023-08-12T02:20:24;4.70;;;2.20;;
16737;SDS011;17906;47.684;10.806;2023-08-12T02:22:50;5.43;;;2.40;;
16737;SDS011;17906;47.684;10.806;2023-08-12T02:25:17;2.13;;;1.87;;
16737;SDS011;17906;47.684;10.806;2023-08-12T02:27:43;3.50;;;2.70;;
16737;SDS011;17906;47.684;10.806;2023-08-12T02:30:10;4.03;;;2.40;;
16737;SDS011;17906;47.684;10.806;2023-08-12T02:32:38;2.73;;;1.50;;
16737;SDS011;17906;47.684;10.806;2023-08-12T02:35:05;1.60;;;1.40;;
16737;SDS011;17906;47.684;10.806;2023-08-12T02:37:31;2.00;;;1.80;;
16737;SDS011;17906;47.684;10.806;2023-08-12T02:39:57;2.50;;;1.83;;
16737;SDS011;17906;47.684;10.806;2023-08-12T02:42:24;3.13;;;2.83;;
16737;SDS011;17906;47.684;10.806;2023-08-12T02:44:50;2.83;;;2.43;;
16737;SDS011;17906;47.684;10.806;2023-08-12T02:47:17;6.10;;;2.07;;
16737;SDS011;17906;47.684;10.806;2023-08-12T02:49:45;4.00;;;2.30;;
16737;SDS011;17906;47.684;10.806;2023-08-12T02:52:11;4.17;;;1.90;;
16737;SDS011;17906;47.684;10.806;2023-08-12T02:54:37;2.80;;;2.30;;
16737;SDS011;17906;47.684;10.806;2023-08-12T02:57:04;3.40;;;3.03;;
16737;SDS011;17906;47.684;10.806;2023-08-12T02:59:30;5.87;;;3.37;;
16737;SDS011;17906;47.684;10.806;2023-08-12T03:01:56;3.80;;;3.10;;
16737;SDS011;17906;47.684;10.806;2023-08-12T03:04:23;4.83;;;3.30;;
16737;SDS011;17906;47.684;10.806;2023-08-12T03:06:51;3.27;;;2.53;;
16737;SDS011;17906;47.684;10.806;2023-08-12T03:09:17;5.57;;;2.27;;
16737;SDS011;17906;47.684;10.806;2023-08-12T03:11:45;4.73;;;3.40;;
16737;SDS011;17906;47.684;10.806;2023-08-12T03:14:11;5.07;;;3.20;;
16737;SDS011;17906;47.684;10.806;2023-08-12T03:16:38;3.23;;;2.60;;
16737;SDS011;17906;47.684;10.806;2023-08-12T03:19:04;2.40;;;1.80;;
16737;SDS011;17906;47.684;10.806;2023-08-12T03:21:31;5.07;;;2.57;;
16737;SDS011;17906;47.684;10.806;2023-08-12T03:23:58;3.60;;;2.53;;
16737;SDS011;17906;47.684;10.806;2023-08-12T03:26:25;3.27;;;2.27;;
16737;SDS011;17906;47.684;10.806;2023-08-12T03:28:51;3.33;;;2.50;;
16737;SDS011;17906;47.684;10.806;2023-08-12T03:31:18;3.67;;;2.47;;
16737;SDS011;17906;47.684;10.806;2023-08-12T03:33:44;4.10;;;2.67;;
16737;SDS011;17906;47.684;10.806;2023-08-12T03:36:11;6.73;;;2.90;;
16737;SDS011;17906;47.684;10.806;2023-08-12T03:38:37;3.83;;;2.70;;
16737;SDS011;17906;47.684;10.806;2023-08-12T03:41:05;3.47;;;2.20;;
16737;SDS011;17906;47.684;10.806;2023-08-12T03:43:32;3.30;;;2.60;;
16737;SDS011;17906;47.684;10.806;2023-08-12T03:45:59;5.17;;;2.63;;
16737;SDS011;17906;47.684;10.806;2023-08-12T03:48:26;2.53;;;2.10;;
16737;SDS011;17906;47.684;10.806;2023-08-12T03:50:52;4.60;;;1.80;;
16737;SDS011;17906;47.684;10.806;2023-08-12T03:53:18;2.13;;;1.87;;
16737;SDS011;17906;47.684;10.806;2023-08-12T03:55:45;2.50;;;2.00;;
16737;SDS011;17906;47.684;10.806;2023-08-12T03:58:12;2.27;;;1.93;;
16737;SDS011;17906;47.684;10.806;2023-08-12T04:00:40;3.13;;;2.07;;
16737;SDS011;17906;47.684;10.806;2023-08-12T04:03:06;2.27;;;1.90;;
16737;SDS011;17906;47.684;10.806;2023-08-12T04:05:33;2.40;;;2.20;;
16737;SDS011;17906;47.684;10.806;2023-08-12T04:07:59;3.47;;;2.10;;
16737;SDS011;17906;47.684;10.806;2023-08-12T04:10:26;2.10;;;1.90;;
16737;SDS011;17906;47.684;10.806;2023-08-12T04:12:52;3.13;;;2.30;;
16737;SDS011;17906;47.684;10.806;2023-08-12T04:15:20;4.40;;;2.40;;
16737;SDS011;17906;47.684;10.806;2023-08-12T04:17:46;3.20;;;2.63;;
16737;SDS011;17906;47.684;10.806;2023-08-12T04:20:12;3.27;;;2.73;;
16737;SDS011;17906;47.684;10.806;2023-08-12T04:22:39;3.97;;;3.27;;
16737;SDS011;17906;47.684;10.806;2023-08-12T04:25:05;4.80;;;3.17;;
16737;SDS011;17906;47.684;10.806;2023-08-12T04:27:32;4.27;;;2.87;;
16737;SDS011;17906;47.684;10.806;2023-08-12T04:29:59;4.53;;;3.00;;
16737;SDS011;17906;47.684;10.806;2023-08-12T04:32:27;3.70;;;3.00;;
16737;SDS011;17906;47.684;10.806;2023-08-12T04:34:53;4.03;;;3.00;;
16737;SDS011;17906;47.684;10.806;2023-08-12T04:37:20;3.63;;;2.70;;
16737;SDS011;17906;47.684;10.806;2023-08-12T04:39:46;3.60;;;3.10;;
16737;SDS011;17906;47.684;10.806;2023-08-12T04:42:12;3.37;;;2.70;;
16737;SDS011;17906;47.684;10.806;2023-08-12T04:44:39;3.80;;;2.77;;
16737;SDS011;17906;47.684;10.806;2023-08-12T04:47:05;4.97;;;2.90;;
16737;SDS011;17906;47.684;10.806;2023-08-12T04:49:33;4.03;;;3.23;;
16737;SDS011;17906;47.684;10.806;2023-08-12T04:51:59;5.10;;;3.40;;
16737;SDS011;17906;47.684;10.806;2023-08-12T04:54:26;6.63;;;3.50;;
16737;SDS011;17906;47.684;10.806;2023-08-12T04:56:52;6.00;;;3.33;;
16737;SDS011;17906;47.684;10.806;2023-08-12T04:59:18;5.13;;;3.17;;
16737;SDS011;17906;47.684;10.806;2023-08-12T05:01:45;3.93;;;3.17;;
16737;SDS011;17906;47.684;10.806;2023-08-12T05:04:11;4.30;;;2.80;;
16737;SDS011;17906;47.684;10.806;2023-08-12T05:06:39;4.27;;;3.00;;
16737;SDS011;17906;47.684;10.806;2023-08-12T05:09:05;3.30;;;2.80;;
16737;SDS011;17906;47.684;10.806;2023-08-12T05:11:32;4.43;;;3.47;;
16737;SDS011;17906;47.684;10.806;2023-08-12T05:13:58;7.07;;;3.90;;
16737;SDS011;17906;47.684;10.806;2023-08-12T05:16:24;4.67;;;3.43;;
16737;SDS011;17906;47.684;10.806;2023-08-12T05:18:51;3.97;;;3.20;;
16737;SDS011;17906;47.684;10.806;2023-08-12T05:21:18;6.97;;;3.20;;
16737;SDS011;17906;47.684;10.806;2023-08-12T05:23:45;5.67;;;3.60;;
16737;SDS011;17906;47.684;10.806;2023-08-12T05:26:12;6.90;;;4.70;;
16737;SDS011;17906;47.684;10.806;2023-08-12T05:28:38;5.67;;;4.40;;
16737;SDS011;17906;47.684;10.806;2023-08-12T05:31:05;8.17;;;6.10;;
16737;SDS011;17906;47.684;10.806;2023-08-12T05:33:31;8.10;;;6.23;;
16737;SDS011;17906;47.684;10.806;2023-08-12T05:35:58;8.77;;;5.83;;
16737;SDS011;17906;47.684;10.806;2023-08-12T05:38:24;10.43;;;6.67;;
16737;SDS011;17906;47.684;10.806;2023-08-12T05:40:52;8.47;;;6.40;;
16737;SDS011;17906;47.684;10.806;2023-08-12T05:43:18;9.90;;;5.57;;
16737;SDS011;17906;47.684;10.806;2023-08-12T05:45:45;9.40;;;5.77;;
16737;SDS011;17906;47.684;10.806;2023-08-12T05:48:11;8.43;;;5.32;;
16737;SDS011;17906;47.684;10.806;2023-08-12T05:50:38;10.68;;;5.82;;
16737;SDS011;17906;47.684;10.806;2023-08-12T05:53:04;7.32;;;5.63;;
16737;SDS011;17906;47.684;10.806;2023-08-12T05:55:32;8.10;;;5.85;;
16737;SDS011;17906;47.684;10.806;2023-08-12T05:58:01;6.88;;;5.07;;
16737;SDS011;17906;47.684;10.806;2023-08-12T06:00:27;15.82;;;10.10;;
16737;SDS011;17906;47.684;10.806;2023-08-12T06:02:54;12.63;;;9.23;;
16737;SDS011;17906;47.684;10.806;2023-08-12T06:05:20;13.18;;;10.20;;
16737;SDS011;17906;47.684;10.806;2023-08-12T06:07:46;12.70;;;9.48;;
16737;SDS011;17906;47.684;10.806;2023-08-12T06:10:13;11.18;;;9.30;;
16737;SDS011;17906;47.684;10.806;2023-08-12T06:12:39;15.68;;;10.80;;
16737;SDS011;17906;47.684;10.806;2023-08-12T06:15:07;10.93;;;8.73;;
16737;SDS011;17906;47.684;10.806;2023-08-12T06:17:34;10.93;;;8.05;;
16737;SDS011;17906;47.684;10.806;2023-08-12T06:20:00;11.52;;;7.75;;
16737;SDS011;17906;47.684;10.806;2023-08-12T06:22:27;9.18;;;7.15;;
16737;SDS011;17906;47.684;10.806;2023-08-12T06:24:53;9.90;;;6.63;;
16737;SDS011;17906;47.684;10.806;2023-08-12T06:27:20;8.68;;;6.38;;
16737;SDS011;17906;47.684;10.806;2023-08-12T06:29:46;9.18;;;6.43;;
16737;SDS011;17906;47.684;10.806;2023-08-12T06:32:14;9.93;;;5.80;;
16737;SDS011;17906;47.684;10.806;2023-08-12T06:34:40;10.32;;;7.22;;
16737;SDS011;17906;47.684;10.806;2023-08-12T06:37:07;8.75;;;7.13;;
16737;SDS011;17906;47.684;10.806;2023-08-12T06:39:33;8.75;;;7.18;;
16737;SDS011;17906;47.684;10.806;2023-08-12T06:41:59;8.40;;;6.47;;
16737;SDS011;17906;47.684;10.806;2023-08-12T06:44:26;9.73;;;6.00;;
16737;SDS011;17906;47.684;10.806;2023-08-12T06:46:52;10.82;;;6.45;;
16737;SDS011;17906;47.684;10.806;2023-08-12T06:49:20;7.47;;;5.90;;
16737;SDS011;17906;47.684;10.806;2023-08-12T06:51:46;9.18;;;5.97;;
16737;SDS011;17906;47.684;10.806;2023-08-12T06:54:13;8.55;;;5.13;;
16737;SDS011;17906;47.684;10.806;2023-08-12T06:56:39;6.45;;;5.13;;
16737;SDS011;17906;47.684;10.806;2023-08-12T06:59:05;7.32;;;5.07;;
16737;SDS011;17906;47.684;10.806;2023-08-12T07:01:32;6.00;;;4.88;;
16737;SDS011;17906;47.684;10.806;2023-08-12T07:03:58;6.78;;;4.68;;
16737;SDS011;17906;47.684;10.806;2023-08-12T07:06:26;7.53;;;4.40;;
16737;SDS011;17906;47.684;10.806;2023-08-12T07:08:52;6.50;;;4.10;;
16737;SDS011;17906;47.684;10.806;2023-08-12T07:11:19;6.68;;;4.00;;
16737;SDS011;17906;47.684;10.806;2023-08-12T07:13:45;5.18;;;3.47;;
16737;SDS011;17906;47.684;10.806;2023-08-12T07:16:12;4.18;;;3.22;;
16737;SDS011;17906;47.684;10.806;2023-08-12T07:18:38;4.03;;;3.05;;
16737;SDS011;17906;47.684;10.806;2023-08-12T07:21:05;4.45;;;3.17;;
16737;SDS011;17906;47.684;10.806;2023-08-12T07:23:32;3.97;;;3.20;;
16737;SDS011;17906;47.684;10.806;2023-08-12T07:25:59;6.38;;;3.50;;
16737;SDS011;17906;47.684;10.806;2023-08-12T07:28:25;4.15;;;2.63;;
16737;SDS011;17906;47.684;10.806;2023-08-12T07:30:52;4.85;;;2.90;;
16737;SDS011;17906;47.684;10.806;2023-08-12T07:33:19;3.30;;;2.70;;
16737;SDS011;17906;47.684;10.806;2023-08-12T07:35:45;4.47;;;3.13;;
16737;SDS011;17906;47.684;10.806;2023-08-12T07:38:11;4.97;;;3.83;;
16737;SDS011;17906;47.684;10.806;2023-08-12T07:40:39;4.95;;;3.10;;
16737;SDS011;17906;47.684;10.806;2023-08-12T07:43:06;5.10;;;3.45;;
16737;SDS011;17906;47.684;10.806;2023-08-12T07:45:32;3.45;;;2.72;;
16737;SDS011;17906;47.684;10.806;2023-08-12T07:47:59;5.53;;;3.22;;
16737;SDS011;17906;47.684;10.806;2023-08-12T07:50:25;5.55;;;3.17;;
16737;SDS011;17906;47.684;10.806;2023-08-12T07:52:54;4.90;;;3.03;;
16737;SDS011;17906;47.684;10.806;2023-08-12T07:55:20;5.95;;;3.40;;
16737;SDS011;17906;47.684;10.806;2023-08-12T07:57:48;3.42;;;3.08;;
16737;SDS011;17906;47.684;10.806;2023-08-12T08:00:15;5.40;;;3.13;;
16737;SDS011;17906;47.684;10.806;2023-08-12T08:02:41;3.72;;;3.03;;
16737;SDS011;17906;47.684;10.806;2023-08-12T08:05:08;4.68;;;3.10;;
16737;SDS011;17906;47.684;10.806;2023-08-12T08:07:34;3.85;;;3.13;;
16737;SDS011;17906;47.684;10.806;2023-08-12T08:10:01;5.65;;;2.80;;
16737;SDS011;17906;47.684;10.806;2023-08-12T08:12:27;3.95;;;2.60;;
16737;SDS011;17906;47.684;10.806;2023-08-12T08:14:55;3.33;;;2.55;;
16737;SDS011;17906;47.684;10.806;2023-08-12T08:17:21;5.68;;;2.75;;
16737;SDS011;17906;47.684;10.806;2023-08-12T08:19:47;3.35;;;2.67;;
16737;SDS011;17906;47.684;10.806;2023-08-12T08:22:14;5.40;;;2.78;;
16737;SDS011;17906;47.684;10.806;2023-08-12T08:24:40;5.78;;;3.10;;
16737;SDS011;17906;47.684;10.806;2023-08-12T08:27:06;4.85;;;2.42;;
16737;SDS011;17906;47.684;10.806;2023-08-12T08:29:33;6.18;;;3.15;;
16737;SDS011;17906;47.684;10.806;2023-08-12T08:32:01;4.93;;;2.50;;
16737;SDS011;17906;47.684;10.806;2023-08-12T08:34:27;3.58;;;2.65;;
16737;SDS011;17906;47.684;10.806;2023-08-12T08:36:53;3.13;;;2.58;;
16737;SDS011;17906;47.684;10.806;2023-08-12T08:39:20;4.13;;;2.65;;
16737;SDS011;17906;47.684;10.806;2023-08-12T08:41:47;3.58;;;2.78;;
16737;SDS011;17906;47.684;10.806;2023-08-12T08:44:14;3.35;;;2.55;;
16737;SDS011;17906;47.684;10.806;2023-08-12T08:46:41;2.92;;;2.60;;
16737;SDS011;17906;47.684;10.806;2023-08-12T08:49:08;5.68;;;2.60;;
16737;SDS011;17906;47.684;10.806;2023-08-12T08:51:36;4.25;;;2.72;;
16737;SDS011;17906;47.684;10.806;2023-08-12T08:54:02;4.68;;;2.42;;
16737;SDS011;17906;47.684;10.806;2023-08-12T08:56:29;3.17;;;2.70;;
16737;SDS011;17906;47.684;10.806;2023-08-12T08:58:56;3.60;;;2.60;;
16737;SDS011;17906;47.684;10.806;2023-08-12T09:01:23;3.25;;;2.47;;
16737;SDS011;17906;47.684;10.806;2023-08-12T09:03:50;4.53;;;2.45;;
16737;SDS011;17906;47.684;10.806;2023-08-12T09:06:19;4.97;;;2.85;;
16737;SDS011;17906;47.684;10.806;2023-08-12T09:08:48;4.18;;;2.70;;
16737;SDS011;17906;47.684;10.806;2023-08-12T09:11:14;5.45;;;2.95;;
16737;SDS011;17906;47.684;10.806;2023-08-12T09:13:43;4.03;;;2.67;;
16737;SDS011;17906;47.684;10.806;2023-08-12T09:16:09;3.63;;;2.70;;
16737;SDS011;17906;47.684;10.806;2023-08-12T09:18:36;3.28;;;2.90;;
16737;SDS011;17906;47.684;10.806;2023-08-12T09:21:03;3.08;;;2.35;;
16737;SDS011;17906;47.684;10.806;2023-08-12T09:23:34;3.53;;;2.78;;
16737;SDS011;17906;47.684;10.806;2023-08-12T09:26:01;3.67;;;2.40;;
16737;SDS011;17906;47.684;10.806;2023-08-12T09:28:28;3.22;;;2.42;;
16737;SDS011;17906;47.684;10.806;2023-08-12T09:30:54;4.65;;;2.75;;
16737;SDS011;17906;47.684;10.806;2023-08-12T09:33:23;4.53;;;2.53;;
16737;SDS011;17906;47.684;10.806;2023-08-12T09:35:50;2.85;;;2.50;;
16737;SDS011;17906;47.684;10.806;2023-08-12T09:38:16;3.00;;;2.70;;
16737;SDS011;17906;47.684;10.806;2023-08-12T09:40:46;6.50;;;2.95;;
16737;SDS011;17906;47.684;10.806;2023-08-12T09:43:12;3.22;;;2.67;;
16737;SDS011;17906;47.684;10.806;2023-08-12T09:45:40;5.50;;;2.85;;
16737;SDS011;17906;47.684;10.806;2023-08-12T09:48:06;5.32;;;2.85;;
16737;SDS011;17906;47.684;10.806;2023-08-12T09:50:34;5.65;;;2.90;;
16737;SDS011;17906;47.684;10.806;2023-08-12T09:53:02;4.75;;;2.33;;
16737;SDS011;17906;47.684;10.806;2023-08-12T09:55:29;3.17;;;2.60;;
16737;SDS011;17906;47.684;10.806;2023-08-12T09:57:57;4.35;;;2.60;;
16737;SDS011;17906;47.684;10.806;2023-08-12T10:00:25;7.88;;;3.08;;
16737;SDS011;17906;47.684;10.806;2023-08-12T10:02:51;3.60;;;2.40;;
16737;SDS011;17906;47.684;10.806;2023-08-12T10:05:19;3.13;;;2.60;;
16737;SDS011;17906;47.684;10.806;2023-08-12T10:07:47;4.57;;;2.78;;
16737;SDS011;17906;47.684;10.806;2023-08-12T10:10:14;5.85;;;2.90;;
16737;SDS011;17906;47.684;10.806;2023-08-12T10:12:41;4.20;;;2.50;;
16737;SDS011;17906;47.684;10.806;2023-08-12T10:15:09;3.45;;;2.72;;
16737;SDS011;17906;47.684;10.806;2023-08-12T10:17:36;3.95;;;2.80;;
16737;SDS011;17906;47.684;10.806;2023-08-12T10:20:03;3.58;;;2.78;;
16737;SDS011;17906;47.684;10.806;2023-08-12T10:22:31;5.30;;;2.92;;
16737;SDS011;17906;47.684;10.806;2023-08-12T10:24:59;5.28;;;2.60;;
16737;SDS011;17906;47.684;10.806;2023-08-12T10:27:27;4.50;;;2.60;;
16737;SDS011;17906;47.684;10.806;2023-08-12T10:29:55;4.00;;;3.00;;
16737;SDS011;17906;47.684;10.806;2023-08-12T10:32:23;3.50;;;2.47;;
16737;SDS011;17906;47.684;10.806;2023-08-12T10:34:53;4.30;;;2.60;;
16737;SDS011;17906;47.684;10.806;2023-08-12T10:37:20;3.70;;;2.60;;
16737;SDS011;17906;47.684;10.806;2023-08-12T10:39:46;2.83;;;2.60;;
16737;SDS011;17906;47.684;10.806;2023-08-12T10:42:12;5.63;;;2.67;;
16737;SDS011;17906;47.684;10.806;2023-08-12T10:44:40;2.90;;;2.60;;
16737;SDS011;17906;47.684;10.806;2023-08-12T10:47:14;6.63;;;2.85;;
16737;SDS011;17906;47.684;10.806;2023-08-12T10:49:43;3.85;;;2.85;;
16737;SDS011;17906;47.684;10.806;2023-08-12T10:52:19;4.85;;;3.08;;
16737;SDS011;17906;47.684;10.806;2023-08-12T10:54:45;4.72;;;2.78;;
16737;SDS011;17906;47.684;10.806;2023-08-12T10:57:12;4.45;;;2.95;;
16737;SDS011;17906;47.684;10.806;2023-08-12T10:59:48;3.42;;;2.85;;
16737;SDS011;17906;47.684;10.806;2023-08-12T11:02:15;5.82;;;2.90;;
16737;SDS011;17906;47.684;10.806;2023-08-12T11:04:44;5.22;;;2.67;;
16737;SDS011;17906;47.684;10.806;2023-08-12T11:07:17;3.28;;;2.65;;
16737;SDS011;17906;47.684;10.806;2023-08-12T11:09:43;4.93;;;2.67;;
16737;SDS011;17906;47.684;10.806;2023-08-12T11:12:11;5.35;;;2.53;;
16737;SDS011;17906;47.684;10.806;2023-08-12T11:14:48;2.88;;;2.42;;
16737;SDS011;17906;47.684;10.806;2023-08-12T11:17:15;4.28;;;2.95;;
16737;SDS011;17906;47.684;10.806;2023-08-12T11:19:41;4.63;;;2.85;;
16737;SDS011;17906;47.684;10.806;2023-08-12T11:22:10;4.07;;;2.83;;
16737;SDS011;17906;47.684;10.806;2023-08-12T11:24:38;4.28;;;2.60;;
16737;SDS011;17906;47.684;10.806;2023-08-12T11:27:05;4.03;;;2.85;;
16737;SDS011;17906;47.684;10.806;2023-08-12T11:29:32;5.47;;;2.70;;
16737;SDS011;17906;47.684;10.806;2023-08-12T11:31:59;4.57;;;3.17;;
16737;SDS011;17906;47.684;10.806;2023-08-12T11:34:25;2.67;;;2.17;;
16737;SDS011;17906;47.684;10.806;2023-08-12T11:36:52;7.05;;;2.72;;
16737;SDS011;17906;47.684;10.806;2023-08-12T11:39:20;10.50;;;2.83;;
16737;SDS011;17906;47.684;10.806;2023-08-12T11:41:48;3.15;;;2.50;;
16737;SDS011;17906;47.684;10.806;2023-08-12T11:44:15;3.47;;;2.70;;
16737;SDS011;17906;47.684;10.806;2023-08-12T11:46:42;5.95;;;2.65;;
16737;SDS011;17906;47.684;10.806;2023-08-12T11:49:08;2.95;;;2.40;;
16737;SDS011;17906;47.684;10.806;2023-08-12T11:51:35;3.53;;;2.67;;
16737;SDS011;17906;47.684;10.806;2023-08-12T11:54:01;4.22;;;2.42;;
16737;SDS011;17906;47.684;10.806;2023-08-12T11:56:29;4.25;;;2.40;;
16737;SDS011;17906;47.684;10.806;2023-08-12T11:58:56;3.85;;;2.70;;
16737;SDS011;17906;47.684;10.806;2023-08-12T12:01:22;3.63;;;2.60;;
16737;SDS011;17906;47.684;10.806;2023-08-12T12:03:50;3.28;;;2.40;;
16737;SDS011;17906;47.684;10.806;2023-08-12T12:06:17;4.35;;;2.38;;
16737;SDS011;17906;47.684;10.806;2023-08-12T12:08:43;3.75;;;2.38;;
16737;SDS011;17906;47.684;10.806;2023-08-12T12:11:10;3.10;;;2.53;;
16737;SDS011;17906;47.684;10.806;2023-08-12T12:13:38;3.28;;;2.70;;
16737;SDS011;17906;47.684;10.806;2023-08-12T12:16:09;6.10;;;2.80;;
16737;SDS011;17906;47.684;10.806;2023-08-12T12:18:35;2.92;;;2.63;;
16737;SDS011;17906;47.684;10.806;2023-08-12T12:21:02;3.20;;;2.58;;
16737;SDS011;17906;47.684;10.806;2023-08-12T12:23:29;4.20;;;2.75;;
16737;SDS011;17906;47.684;10.806;2023-08-12T12:25:59;3.50;;;2.85;;
16737;SDS011;17906;47.684;10.806;2023-08-12T12:28:25;4.18;;;3.00;;
16737;SDS011;17906;47.684;10.806;2023-08-12T12:30:53;5.32;;;2.67;;
16737;SDS011;17906;47.684;10.806;2023-08-12T12:33:20;5.18;;;3.05;;
16737;SDS011;17906;47.684;10.806;2023-08-12T12:35:46;5.53;;;2.83;;
16737;SDS011;17906;47.684;10.806;2023-08-12T12:38:12;4.05;;;2.33;;
16737;SDS011;17906;47.684;10.806;2023-08-12T12:40:39;6.72;;;3.28;;
16737;SDS011;17906;47.684;10.806;2023-08-12T12:43:05;4.47;;;2.72;;
16737;SDS011;17906;47.684;10.806;2023-08-12T12:45:31;5.35;;;2.67;;
16737;SDS011;17906;47.684;10.806;2023-08-12T12:47:59;5.38;;;2.70;;
16737;SDS011;17906;47.684;10.806;2023-08-12T12:50:26;5.10;;;3.03;;
16737;SDS011;17906;47.684;10.806;2023-08-12T12:52:52;4.97;;;2.88;;
16737;SDS011;17906;47.684;10.806;2023-08-12T12:55:18;3.13;;;2.58;;
16737;SDS011;17906;47.684;10.806;2023-08-12T12:57:45;4.28;;;2.80;;
16737;SDS011;17906;47.684;10.806;2023-08-12T13:00:12;3.95;;;2.60;;
16737;SDS011;17906;47.684;10.806;2023-08-12T13:02:39;6.80;;;2.63;;
16737;SDS011;17906;47.684;10.806;2023-08-12T13:05:07;3.95;;;2.67;;
16737;SDS011;17906;47.684;10.806;2023-08-12T13:07:33;4.82;;;3.03;;
16737;SDS011;17906;47.684;10.806;2023-08-12T13:10:00;4.25;;;3.00;;
16737;SDS011;17906;47.684;10.806;2023-08-12T13:12:27;4.15;;;2.53;;
16737;SDS011;17906;47.684;10.806;2023-08-12T13:14:53;4.55;;;3.00;;
16737;SDS011;17906;47.684;10.806;2023-08-12T13:17:19;4.93;;;3.30;;
16737;SDS011;17906;47.684;10.806;2023-08-12T13:19:46;4.05;;;3.20;;
16737;SDS011;17906;47.684;10.806;2023-08-12T13:22:13;8.10;;;3.13;;
16737;SDS011;17906;47.684;10.806;2023-08-12T13:24:40;4.60;;;2.97;;
16737;SDS011;17906;47.684;10.806;2023-08-12T13:27:06;5.82;;;3.42;;
16737;SDS011;17906;47.684;10.806;2023-08-12T13:29:33;4.75;;;3.08;;
16737;SDS011;17906;47.684;10.806;2023-08-12T13:31:59;5.80;;;3.28;;
16737;SDS011;17906;47.684;10.806;2023-08-12T13:34:26;4.07;;;3.38;;
16737;SDS011;17906;47.684;10.806;2023-08-12T13:36:52;7.13;;;3.03;;
16737;SDS011;17906;47.684;10.806;2023-08-12T13:39:20;4.47;;;3.05;;
16737;SDS011;17906;47.684;10.806;2023-08-12T13:41:47;4.93;;;3.00;;
16737;SDS011;17906;47.684;10.806;2023-08-12T13:44:13;5.90;;;3.15;;
16737;SDS011;17906;47.684;10.806;2023-08-12T13:46:39;6.30;;;2.88;;
16737;SDS011;17906;47.684;10.806;2023-08-12T13:49:06;5.88;;;3.15;;
16737;SDS011;17906;47.684;10.806;2023-08-12T13:51:32;4.85;;;3.05;;
16737;SDS011;17906;47.684;10.806;2023-08-12T13:53:59;6.03;;;2.85;;
16737;SDS011;17906;47.684;10.806;2023-08-12T13:56:26;5.80;;;3.28;;
16737;SDS011;17906;47.684;10.806;2023-08-12T13:58:53;5.50;;;3.45;;
16737;SDS011;17906;47.684;10.806;2023-08-12T14:01:19;5.30;;;3.35;;
16737;SDS011;17906;47.684;10.806;2023-08-12T14:03:46;7.18;;;3.45;;
16737;SDS011;17906;47.684;10.806;2023-08-12T14:06:13;5.07;;;3.28;;
16737;SDS011;17906;47.684;10.806;2023-08-12T14:08:39;4.80;;;3.08;;
16737;SDS011;17906;47.684;10.806;2023-08-12T14:11:06;4.10;;;3.20;;
16737;SDS011;17906;47.684;10.806;2023-08-12T14:13:34;7.85;;;3.70;;
16737;SDS011;17906;47.684;10.806;2023-08-12T14:16:00;4.55;;;3.30;;
16737;SDS011;17906;47.684;10.806;2023-08-12T14:18:27;6.38;;;3.60;;
16737;SDS011;17906;47.684;10.806;2023-08-12T14:20:53;6.55;;;3.42;;
16737;SDS011;17906;47.684;10.806;2023-08-12T14:23:19;5.07;;;3.55;;
16737;SDS011;17906;47.684;10.806;2023-08-12T14:25:46;4.78;;;3.90;;
16737;SDS011;17906;47.684;10.806;2023-08-12T14:28:12;8.32;;;3.67;;
16737;SDS011;17906;47.684;10.806;2023-08-12T14:30:40;6.10;;;3.13;;